Time;durP1;ratioP1;P1;durP2;ratioP2;P2;SDS_P1;SDS_P2;PMS_P1;PMS_P2;Temp;Humidity;BMP_temperature;BMP_pressure;BME280_temperature;BME280_humidity;BME280_pressure;Samples;Min_cycle;Max_cycle;Signal;HPM_P1;HPM_P2
2023/09/19 00:00:51;;;;;;;7.00;3.15;;;;;;;21.10;100.00;99836.84;4911432;58;1138651;-73
2023/09/19 00:05:55;;;;;;;3.92;3.35;;;;;;;20.90;100.00;99831.44;4911796;58;1138731;-73
2023/09/19 00:11:02;;;;;;;2.92;2.60;;;;;;;20.64;100.00;99829.98;4995826;57;1138652;-73
2023/09/19 00:16:12;;;;;;;4.62;2.85;;;;;;;20.45;100.00;99814.63;4964130;57;1139134;-72
2023/09/19 00:21:19;;;;;;;7.15;2.62;;;;;;;20.30;100.00;99806.69;5011367;58;1138727;-75
2023/09/19 00:26:25;;;;;;;6.00;3.20;;;;;;;20.31;100.00;99791.72;4996078;57;1138783;-73
2023/09/19 00:31:31;;;;;;;3.72;3.10;;;;;;;20.33;100.00;99807.09;5023362;57;1139035;-73
2023/09/19 00:36:43;;;;;;;5.92;2.70;;;;;;;20.47;100.00;99790.55;4994945;57;1139002;-73
2023/09/19 00:41:48;;;;;;;6.95;3.30;;;;;;;20.58;100.00;99796.70;5012558;56;1139097;-73
2023/09/19 00:46:55;;;;;;;7.78;3.15;;;;;;;20.58;100.00;99820.06;4995766;57;1138860;-73
2023/09/19 00:52:00;;;;;;;5.03;3.05;;;;;;;20.39;100.00;99831.02;4934172;59;1138818;-74
2023/09/19 00:57:07;;;;;;;6.33;3.25;;;;;;;20.21;100.00;99834.20;4914756;56;1138780;-72
2023/09/19 01:02:14;;;;;;;6.92;2.40;;;;;;;20.09;100.00;99831.75;4914801;57;1138995;-73
2023/09/19 01:07:19;;;;;;;8.73;2.77;;;;;;;20.10;100.00;99820.50;4935280;58;1138838;-75
2023/09/19 01:12:31;;;;;;;6.70;2.87;;;;;;;20.08;100.00;99831.95;4927030;57;1138865;-73
2023/09/19 01:17:43;;;;;;;3.60;2.30;;;;;;;20.03;100.00;99829.33;5037289;56;1139037;-73
2023/09/19 01:23:12;;;;;;;5.58;2.67;;;;;;;19.87;100.00;99822.92;5087044;56;1138875;-73
2023/09/19 01:28:25;;;;;;;10.25;2.72;;;;;;;19.72;100.00;99832.09;5079067;56;1138724;-73
2023/09/19 01:33:51;;;;;;;7.97;2.87;;;;;;;19.62;100.00;99814.50;5094400;56;1141128;-73
2023/09/19 01:39:00;;;;;;;4.70;2.93;;;;;;;19.56;100.00;99799.17;5105146;56;1138681;-73
2023/09/19 01:44:10;;;;;;;5.65;2.27;;;;;;;19.63;100.00;99805.94;5084422;56;1138841;-74
2023/09/19 01:49:35;;;;;;;6.90;2.90;;;;;;;19.64;100.00;99802.23;5013956;57;1138697;-73
2023/09/19 01:54:57;;;;;;;5.35;2.67;;;;;;;19.58;100.00;99822.61;5009771;57;1138737;-73
2023/09/19 02:00:11;;;;;;;4.30;1.77;;;;;;;19.58;100.00;99822.61;5014422;57;1148638;-73
2023/09/19 02:05:27;;;;;;;5.90;2.66;;;;;;;19.51;100.00;99815.03;5023604;57;1146039;-75
2023/09/19 02:10:34;;;;;;;5.87;2.33;;;;;;;19.51;100.00;99816.89;5046968;56;1138692;-73
2023/09/19 02:15:39;;;;;;;5.12;2.10;;;;;;;19.48;100.00;99822.59;4998344;57;1138762;-73
2023/09/19 02:20:45;;;;;;;7.30;2.60;;;;;;;19.51;100.00;99812.35;5018593;57;1138848;-73
2023/09/19 02:25:58;;;;;;;4.15;2.20;;;;;;;19.53;100.00;99808.97;5095611;56;1138596;-73
2023/09/19 02:31:05;;;;;;;5.95;2.17;;;;;;;19.57;100.00;99801.34;5124233;56;1138974;-73
2023/09/19 02:36:10;;;;;;;6.33;2.10;;;;;;;19.60;100.00;99800.45;5124244;55;1138808;-73
2023/09/19 02:41:16;;;;;;;4.70;2.00;;;;;;;19.66;100.00;99807.73;5102671;56;1138760;-73
2023/09/19 02:46:22;;;;;;;4.97;1.77;;;;;;;19.65;100.00;99801.21;5064623;56;1148373;-74
2023/09/19 02:51:27;;;;;;;2.87;2.07;;;;;;;19.61;100.00;99804.79;5123587;56;1138701;-72
2023/09/19 02:56:34;;;;;;;4.17;2.33;;;;;;;19.52;100.00;99803.80;5144363;56;1138756;-73
2023/09/19 03:01:39;;;;;;;3.98;2.00;;;;;;;19.47;100.00;99806.19;5123065;56;1138725;-73
2023/09/19 03:06:45;;;;;;;3.17;2.08;;;;;;;19.41;100.00;99807.78;5074694;56;1138737;-73
2023/09/19 03:11:51;;;;;;;6.00;1.95;;;;;;;19.36;100.00;99804.87;4993476;57;1138664;-74
2023/09/19 03:16:58;;;;;;;2.33;1.40;;;;;;;19.35;100.00;99800.53;5015241;57;1138884;-73
2023/09/19 03:22:09;;;;;;;4.05;1.67;;;;;;;19.33;100.00;99799.88;5098969;56;1139018;-73
2023/09/19 03:27:14;;;;;;;2.20;1.70;;;;;;;19.29;100.00;99800.77;5001609;56;1138702;-73
2023/09/19 03:32:19;;;;;;;3.47;1.60;;;;;;;19.26;100.00;99788.25;5045581;56;1139024;-74
2023/09/19 03:37:25;;;;;;;5.37;1.65;;;;;;;19.25;100.00;99794.64;5059673;56;1139035;-73
2023/09/19 03:42:31;;;;;;;4.50;1.97;;;;;;;19.18;100.00;99799.12;4995675;56;1139002;-74
2023/09/19 03:47:38;;;;;;;2.55;1.50;;;;;;;19.09;100.00;99783.70;5014584;56;1138664;-74
2023/09/19 03:52:45;;;;;;;2.40;1.40;;;;;;;19.01;100.00;99774.42;4995505;56;1138688;-73
2023/09/19 03:57:51;;;;;;;4.33;2.10;;;;;;;18.90;100.00;99777.63;4995770;57;1138678;-73
2023/09/19 04:02:57;;;;;;;2.75;1.75;;;;;;;18.82;100.00;99781.75;4994771;57;1138678;-73
2023/09/19 04:08:03;;;;;;;3.45;1.55;;;;;;;18.71;100.00;99768.86;5015613;57;1138781;-73
2023/09/19 04:13:08;;;;;;;4.22;1.52;;;;;;;18.65;100.00;99778.47;5078417;56;1139267;-73
2023/09/19 04:18:14;;;;;;;3.17;1.80;;;;;;;18.58;100.00;99777.55;5051294;56;1138586;-72
2023/09/19 04:23:21;;;;;;;2.02;1.47;;;;;;;18.55;100.00;99785.95;5014275;57;1138980;-73
2023/09/19 04:28:27;;;;;;;2.85;1.70;;;;;;;18.46;100.00;99791.11;5078849;56;1138761;-72
2023/09/19 04:33:35;;;;;;;3.77;1.40;;;;;;;18.36;100.00;99795.40;5019410;56;1138801;-73
2023/09/19 04:38:40;;;;;;;5.07;1.50;;;;;;;18.32;100.00;99794.64;5084046;56;1139161;-74
2023/09/19 04:43:46;;;;;;;1.80;1.70;;;;;;;18.28;100.00;99788.31;4944921;57;1139005;-73
2023/09/19 04:48:51;;;;;;;2.02;1.82;;;;;;;18.22;100.00;99774.33;5005572;57;1139058;-73
2023/09/19 04:53:58;;;;;;;3.85;1.75;;;;;;;18.16;100.00;99797.84;4970643;57;1139202;-74
2023/09/19 04:59:04;;;;;;;4.40;2.02;;;;;;;18.06;100.00;99803.95;5046997;56;1138790;-73
2023/09/19 05:04:10;;;;;;;3.08;1.65;;;;;;;18.02;100.00;99805.88;4914620;58;1138674;-74
2023/09/19 05:09:19;;;;;;;4.10;2.10;;;;;;;17.98;100.00;99805.91;5075719;56;1138716;-72
2023/09/19 05:14:23;;;;;;;3.60;1.87;;;;;;;18.02;100.00;99801.86;5094670;57;1237225;-73
2023/09/19 05:19:28;;;;;;;4.72;2.04;;;;;;;17.99;100.00;99791.02;5022221;56;1138697;-73
2023/09/19 05:24:34;;;;;;;7.42;2.42;;;;;;;17.98;100.00;99801.89;5037073;56;1139158;-74
2023/09/19 05:29:41;;;;;;;3.50;2.10;;;;;;;17.98;100.00;99809.92;5095069;56;1138709;-74
2023/09/19 05:34:47;;;;;;;2.92;2.10;;;;;;;17.96;100.00;99822.14;4995352;57;1138634;-74
2023/09/19 05:39:57;;;;;;;10.15;2.70;;;;;;;17.91;100.00;99811.98;5003827;57;1138822;-73
2023/09/19 05:45:02;;;;;;;2.87;1.93;;;;;;;17.89;100.00;99811.84;5014500;57;1141090;-75
2023/09/19 05:50:09;;;;;;;7.67;1.80;;;;;;;17.88;100.00;99821.70;5083888;56;1139277;-73
2023/09/19 05:55:14;;;;;;;5.13;2.37;;;;;;;17.86;100.00;99826.44;5017921;56;1139165;-73
2023/09/19 06:00:27;;;;;;;5.37;2.15;;;;;;;17.88;100.00;99831.58;5013172;56;1138679;-74
2023/09/19 06:05:32;;;;;;;3.73;2.57;;;;;;;17.89;100.00;99828.72;5052535;56;1138854;-73
2023/09/19 06:10:38;;;;;;;10.53;2.20;;;;;;;17.92;100.00;99827.02;4953197;57;1139034;-73
2023/09/19 06:15:43;;;;;;;6.37;2.25;;;;;;;18.04;100.00;99834.08;5011765;56;1140895;-72
2023/09/19 06:20:50;;;;;;;3.10;1.95;;;;;;;18.22;100.00;99833.72;5054559;55;1138954;-74
2023/09/19 06:25:56;;;;;;;2.72;2.10;;;;;;;18.34;100.00;99834.91;4979132;55;1138841;-74
2023/09/19 06:31:09;;;;;;;2.95;2.05;;;;;;;18.33;100.00;99834.62;5051031;55;1139046;-73
2023/09/19 06:36:11;;;;;;;3.27;1.92;;;;;;;18.39;100.00;99845.07;5028991;56;1138785;-74
2023/09/19 06:41:17;;;;;;;6.05;2.10;;;;;;;18.50;100.00;99854.80;4993332;56;1138814;-73
2023/09/19 06:46:24;;;;;;;5.97;2.00;;;;;;;18.54;100.00;99862.79;4956262;57;1139094;-74
2023/09/19 06:51:30;;;;;;;3.95;2.10;;;;;;;18.57;100.00;99865.61;5002273;56;1138854;-74
2023/09/19 06:56:36;;;;;;;2.37;2.00;;;;;;;18.52;100.00;99869.34;4912521;57;1138934;-74
2023/09/19 07:01:44;;;;;;;4.75;2.02;;;;;;;18.53;100.00;99870.50;4924786;57;1139033;-72
2023/09/19 07:06:52;;;;;;;3.72;2.30;;;;;;;18.63;100.00;99880.14;4983159;57;1138714;-72
2023/09/19 07:11:57;;;;;;;3.35;2.12;;;;;;;18.68;100.00;99889.27;4946795;57;1138761;-74
2023/09/19 07:17:03;;;;;;;5.23;1.93;;;;;;;18.73;100.00;99894.07;4951492;56;1138655;-72
2023/09/19 07:22:09;;;;;;;3.45;2.10;;;;;;;18.79;100.00;99898.16;4968947;56;1138999;-74
2023/09/19 07:27:15;;;;;;;4.35;2.42;;;;;;;18.90;100.00;99908.41;4953902;57;1138752;-74
2023/09/19 07:32:20;;;;;;;3.05;2.37;;;;;;;18.93;100.00;99919.27;5034139;57;1138613;-73
2023/09/19 07:37:26;;;;;;;3.83;2.05;;;;;;;19.07;100.00;99914.90;5003002;56;1191288;-74
2023/09/19 07:42:31;;;;;;;7.64;2.64;;;;;;;19.18;100.00;99921.10;4988807;57;1138671;-72
2023/09/19 07:47:37;;;;;;;3.50;1.63;;;;;;;19.19;100.00;99921.42;5041908;56;1138799;-74
2023/09/19 07:52:43;;;;;;;2.80;2.05;;;;;;;19.40;100.00;99934.84;5140507;55;1139328;-72
2023/09/19 07:57:48;;;;;;;4.05;1.85;;;;;;;19.45;100.00;99936.45;5113708;55;1138670;-75
2023/09/19 08:02:54;;;;;;;4.78;2.25;;;;;;;19.50;100.00;99946.14;5092506;56;1138591;-72
2023/09/19 08:08:02;;;;;;;4.97;2.22;;;;;;;19.46;100.00;99955.55;5098705;54;1138929;-73
2023/09/19 08:13:11;;;;;;;5.17;1.72;;;;;;;19.55;100.00;99957.65;5098078;56;1138647;-74
2023/09/19 08:18:15;;;;;;;2.90;1.77;;;;;;;19.64;100.00;99961.34;5108167;55;1138740;-73
2023/09/19 08:23:21;;;;;;;5.70;1.70;;;;;;;19.78;100.00;99966.84;5089350;56;1138583;-74
2023/09/19 08:28:29;;;;;;;4.72;2.08;;;;;;;19.84;100.00;99970.94;5098513;56;1138852;-74
2023/09/19 08:33:36;;;;;;;2.17;1.65;;;;;;;19.84;100.00;99972.80;5081725;56;1138708;-75
2023/09/19 08:38:42;;;;;;;1.50;1.22;;;;;;;19.85;100.00;99991.39;5088962;56;1138739;-75
2023/09/19 08:43:48;;;;;;;1.05;1.05;;;;;;;19.76;100.00;99993.86;5105329;56;1139205;-73
2023/09/19 08:49:28;;;;;;;3.25;1.30;;;;;;;19.73;100.00;100002.80;5106508;56;1138845;-72
2023/09/19 08:54:43;;;;;;;4.85;1.50;;;;;;;19.67;100.00;99997.70;5106001;56;1140860;-74
2023/09/19 08:59:46;;;;;;;7.03;2.43;;;;;;;19.65;100.00;100006.45;5119822;56;1138897;-74
2023/09/19 09:04:54;;;;;;;5.12;1.35;;;;;;;19.58;100.00;100002.84;5069145;56;1140776;-73
2023/09/19 09:10:00;;;;;;;6.35;1.60;;;;;;;19.60;100.00;100005.67;5100434;56;1140907;-74
2023/09/19 09:15:06;;;;;;;2.22;1.20;;;;;;;19.79;100.00;100004.73;5131319;55;1140901;-73
2023/09/19 09:20:13;;;;;;;2.75;1.27;;;;;;;19.91;100.00;100009.91;5120460;55;1140820;-73
2023/09/19 09:25:19;;;;;;;4.05;1.35;;;;;;;19.81;100.00;100008.89;5072129;56;1140651;-74
2023/09/19 09:30:38;;;;;;;4.03;1.30;;;;;;;19.83;100.00;100023.46;5203771;55;1141170;-73
2023/09/19 09:35:53;;;;;;;10.37;1.83;;;;;;;19.88;100.00;100030.41;5097839;56;1140922;-73
2023/09/19 09:51:33;;;;;;;;;;;;;;;20.24;100.00;100051.32;5117876;55;1140931;-73
2023/09/19 09:57:05;;;;;;;13.93;3.03;;;;;;;20.48;100.00;100052.78;5023208;57;978326;-73
2023/09/19 10:02:08;;;;;;;2.47;1.10;;;;;;;20.42;100.00;100068.36;5069559;56;1140908;-73
2023/09/19 10:07:18;;;;;;;2.87;1.20;;;;;;;20.59;100.00;100070.25;4991274;57;1140830;-73
2023/09/19 10:12:27;;;;;;;3.62;1.00;;;;;;;20.86;100.00;100069.92;5041405;55;1140973;-73
2023/09/19 10:17:34;;;;;;;3.02;0.98;;;;;;;20.98;100.00;100074.55;5024344;56;1141026;-75
2023/09/19 10:22:42;;;;;;;4.80;1.50;;;;;;;20.90;100.00;100080.61;5028568;56;1140998;-73
2023/09/19 10:27:47;;;;;;;2.03;1.40;;;;;;;20.96;100.00;100074.43;5080405;56;1140732;-73
2023/09/19 10:33:05;;;;;;;2.50;1.55;;;;;;;21.13;100.00;100069.57;5070874;56;1140897;-73
2023/09/19 10:38:14;;;;;;;2.67;1.43;;;;;;;21.39;100.00;100065.18;5000910;56;1141047;-73
2023/09/19 10:43:21;;;;;;;6.30;1.98;;;;;;;21.56;100.00;100063.49;4958654;58;1140896;-73
2023/09/19 10:48:28;;;;;;;2.20;1.40;;;;;;;21.68;100.00;100065.94;4927099;58;1140941;-73
2023/09/19 10:53:44;;;;;;;4.78;1.90;;;;;;;21.63;100.00;100067.89;4973179;57;1140979;-73
2023/09/19 10:58:51;;;;;;;5.75;2.25;;;;;;;21.69;100.00;100075.13;5033405;57;1140655;-73
2023/09/19 11:04:01;;;;;;;3.33;1.90;;;;;;;22.02;100.00;100069.88;4994209;56;1140957;-73
2023/09/19 11:09:21;;;;;;;3.87;1.43;;;;;;;22.16;100.00;100080.16;4898929;58;1140866;-72
2023/09/19 11:14:28;;;;;;;1.95;1.30;;;;;;;22.17;100.00;100085.86;4993686;57;1141001;-73
2023/09/19 11:25:47;;;;;;;2.77;1.37;;;;;;;21.69;100.00;100099.36;5077022;56;1140872;-74
2023/09/19 11:30:49;;;;;;;6.33;1.57;;;;;;;21.70;100.00;100105.58;5061878;56;1141085;-73
2023/09/19 11:36:06;;;;;;;5.00;1.40;;;;;;;21.80;100.00;100123.55;4990742;57;1141139;-73
2023/09/19 11:41:29;;;;;;;5.30;1.65;;;;;;;21.64;100.00;100119.85;5052127;57;1140810;-73
2023/09/19 11:46:58;;;;;;;3.87;1.80;;;;;;;21.43;100.00;100132.05;5071387;56;1140840;-73
2023/09/19 11:52:08;;;;;;;11.35;1.65;;;;;;;21.28;100.00;100120.91;5073998;56;1140815;-73
2023/09/19 11:57:19;;;;;;;4.12;1.60;;;;;;;21.05;100.00;100129.73;5073821;56;1143177;-73
2023/09/19 12:02:38;;;;;;;5.92;2.08;;;;;;;21.16;100.00;100130.52;5095746;56;1140780;-73
2023/09/19 12:07:47;;;;;;;6.42;2.00;;;;;;;21.29;100.00;100129.80;5078723;56;1140732;-73
2023/09/19 12:12:56;;;;;;;3.13;1.93;;;;;;;21.48;100.00;100125.05;5078559;56;1140686;-73
2023/09/19 12:18:04;;;;;;;3.53;2.10;;;;;;;21.80;100.00;100127.59;5078594;56;1140774;-73
2023/09/19 12:23:17;;;;;;;2.30;1.87;;;;;;;22.15;100.00;100127.01;5172867;55;1140771;-73
2023/09/19 12:28:26;;;;;;;6.62;2.05;;;;;;;22.51;100.00;100115.02;5054613;56;1140759;-73
2023/09/19 12:33:32;;;;;;;2.85;1.70;;;;;;;22.56;100.00;100117.42;4996006;57;1140976;-73
2023/09/19 12:38:37;;;;;;;6.65;2.42;;;;;;;22.74;99.13;100118.16;4980808;57;1141171;-73
2023/09/19 12:43:43;;;;;;;6.45;1.60;;;;;;;22.70;83.47;100108.30;5078069;56;1138784;-73
2023/09/19 12:48:48;;;;;;;2.37;1.93;;;;;;;22.81;83.50;100116.30;4995382;57;1138955;-74
2023/09/19 12:53:58;;;;;;;7.62;2.80;;;;;;;22.88;77.94;100123.89;5010975;56;1138767;-73
2023/09/19 12:59:06;;;;;;;4.72;2.12;;;;;;;22.87;76.33;100128.14;4990694;56;1138886;-74
2023/09/19 13:04:34;;;;;;;3.33;1.80;;;;;;;22.78;68.29;100122.11;4968737;56;1138648;-73
2023/09/19 13:09:35;;;;;;;5.90;2.10;;;;;;;22.60;68.81;100122.72;5074322;56;1138748;-73
2023/09/19 13:14:44;;;;;;;3.92;2.08;;;;;;;22.63;68.12;100124.15;5114611;56;1138631;-73
2023/09/19 13:19:54;;;;;;;4.90;2.75;;;;;;;22.80;68.63;100123.56;4949963;56;1138966;-73
2023/09/19 13:24:58;;;;;;;2.77;2.13;;;;;;;22.76;67.19;100135.80;4978215;56;1138762;-74
2023/09/19 13:30:05;;;;;;;2.67;2.33;;;;;;;22.73;66.09;100130.81;5012423;57;1138941;-73
2023/09/19 13:35:11;;;;;;;7.25;2.60;;;;;;;22.59;66.04;100125.11;5034231;56;1138788;-73
2023/09/19 13:40:17;;;;;;;5.50;2.72;;;;;;;22.30;68.10;100132.22;5097895;56;1138867;-73
2023/09/19 13:45:26;;;;;;;3.87;2.72;;;;;;;22.12;70.04;100140.88;5097609;56;1138880;-73
2023/09/19 13:50:31;;;;;;;7.92;3.02;;;;;;;22.34;70.75;100137.49;5118759;56;1139214;-73
2023/09/19 13:55:37;;;;;;;5.95;3.17;;;;;;;22.58;68.51;100141.48;5058047;56;1138788;-73
2023/09/19 14:00:43;;;;;;;4.75;3.30;;;;;;;22.79;68.43;100138.60;4914747;58;1138760;-74
2023/09/19 14:05:51;;;;;;;4.70;2.55;;;;;;;22.91;68.53;100137.48;4929850;58;1138655;-73
2023/09/19 14:10:56;;;;;;;4.60;2.58;;;;;;;22.74;66.82;100143.26;4980143;56;1138644;-73
2023/09/19 14:16:10;;;;;;;3.10;2.45;;;;;;;22.70;68.34;100133.08;4958691;58;1138937;-73
2023/09/19 14:21:16;;;;;;;3.12;2.50;;;;;;;22.50;68.37;100133.58;5055983;55;1138984;-74
2023/09/19 14:26:23;;;;;;;3.45;2.47;;;;;;;22.45;68.43;100127.48;5088772;56;1138922;-73
2023/09/19 14:31:28;;;;;;;2.35;2.20;;;;;;;22.35;69.42;100133.25;5166112;55;1138951;-74
2023/09/19 14:36:35;;;;;;;3.85;2.60;;;;;;;22.25;68.75;100136.87;5098507;56;1138690;-73
2023/09/19 14:41:40;;;;;;;2.87;2.08;;;;;;;22.16;70.78;100139.41;5078852;56;1138567;-73
2023/09/19 14:46:46;;;;;;;3.12;2.52;;;;;;;22.09;70.02;100142.63;5079382;56;1138583;-73
2023/09/19 14:51:52;;;;;;;2.80;2.58;;;;;;;22.13;71.93;100141.20;5052292;56;1138838;-73
2023/09/19 14:57:04;;;;;;;7.00;2.90;;;;;;;22.09;72.13;100148.84;5022488;57;1138772;-73
2023/09/19 15:02:06;;;;;;;4.20;3.10;;;;;;;21.93;69.83;100153.72;5013867;57;1138976;-73
2023/09/19 15:07:12;;;;;;;3.50;2.70;;;;;;;21.74;70.90;100156.13;5176696;55;1138843;-73
2023/09/19 15:12:17;;;;;;;4.72;2.83;;;;;;;21.70;71.42;100155.37;4973508;56;1138749;-74
2023/09/19 15:17:25;;;;;;;3.02;2.70;;;;;;;21.65;72.02;100152.47;5059684;56;1138677;-74
2023/09/19 15:22:30;;;;;;;10.45;3.08;;;;;;;21.55;72.21;100156.02;5076346;56;1138784;-73
2023/09/19 15:27:36;;;;;;;4.03;2.52;;;;;;;21.51;72.24;100158.30;5042833;56;1140677;-72
2023/09/19 15:32:42;;;;;;;6.22;3.60;;;;;;;21.44;72.76;100164.66;5198930;56;1139006;-72
2023/09/19 15:37:48;;;;;;;3.95;2.92;;;;;;;21.37;72.93;100164.12;5211200;56;1138884;-73
2023/09/19 15:42:56;;;;;;;9.20;2.75;;;;;;;21.28;74.42;100163.94;5196669;56;1138830;-73
2023/09/19 15:48:02;;;;;;;17.30;7.72;;;;;;;21.24;74.57;100168.55;5184481;56;1139213;-73
2023/09/19 15:53:14;;;;;;;5.30;3.60;;;;;;;21.17;74.66;100164.97;4978079;56;1141250;-72
2023/09/19 15:58:15;;;;;;;13.83;6.00;;;;;;;21.13;75.14;100175.28;4932451;57;1138927;-72
2023/09/19 16:03:21;;;;;;;4.45;2.55;;;;;;;21.11;74.85;100180.53;4989913;57;1141068;-72
2023/09/19 16:08:27;;;;;;;6.72;3.02;;;;;;;21.05;75.05;100182.17;4967899;57;1138752;-72
2023/09/19 16:13:33;;;;;;;4.17;2.80;;;;;;;20.99;74.25;100190.48;4954202;56;1138675;-73
2023/09/19 16:18:39;;;;;;;8.20;3.25;;;;;;;20.89;74.23;100181.94;4995049;57;1138713;-73
2023/09/19 16:23:50;;;;;;;6.92;2.60;;;;;;;20.78;74.39;100191.84;4984587;57;1138721;-73
2023/09/19 16:29:04;;;;;;;3.10;2.60;;;;;;;20.69;73.73;100198.39;4974923;57;1138678;-73
2023/09/19 16:34:06;;;;;;;3.42;2.65;;;;;;;20.58;74.07;100190.84;4932469;57;1138895;-72
2023/09/19 16:39:12;;;;;;;4.20;2.30;;;;;;;20.54;74.04;100196.27;5121346;55;1138739;-72
2023/09/19 16:44:20;;;;;;;5.60;3.72;;;;;;;20.48;73.40;100200.55;4986666;57;1138701;-72
2023/09/19 16:49:25;;;;;;;11.33;6.97;;;;;;;20.41;72.83;100202.34;4993773;57;1138833;-72
2023/09/19 16:54:30;;;;;;;9.53;4.80;;;;;;;20.32;72.86;100208.80;5013895;57;1141004;-74
2023/09/19 16:59:36;;;;;;;9.03;4.92;;;;;;;20.21;73.08;100208.80;4991418;57;1138745;-75
2023/09/19 17:04:42;;;;;;;14.10;3.80;;;;;;;20.12;73.36;100213.97;5069465;56;1138777;-72
2023/09/19 17:09:48;;;;;;;22.05;10.28;;;;;;;19.98;73.88;100212.97;5097211;56;1140986;-73
2023/09/19 17:14:55;;;;;;;34.55;17.10;;;;;;;19.88;74.94;100204.36;5024343;56;1142900;-73
2023/09/19 17:20:00;;;;;;;14.60;7.17;;;;;;;19.86;75.65;100209.62;5022427;56;1143071;-73
2023/09/19 17:25:07;;;;;;;20.12;8.38;;;;;;;19.80;76.41;100212.52;4968683;57;1140972;-73
2023/09/19 17:30:17;;;;;;;11.65;5.08;;;;;;;19.77;77.50;100215.57;5020548;57;1140915;-74
2023/09/19 17:35:22;;;;;;;7.65;3.60;;;;;;;19.66;78.17;100219.56;4984182;56;1140851;-73
2023/09/19 17:40:28;;;;;;;8.95;4.05;;;;;;;19.52;78.73;100224.41;5152242;55;1138555;-73
2023/09/19 17:45:33;;;;;;;78.90;44.23;;;;;;;19.48;79.42;100227.10;5008946;55;1138738;-73
2023/09/19 17:50:41;;;;;;;27.65;13.50;;;;;;;19.36;80.02;100231.77;5054773;56;1142986;-74
2023/09/19 17:55:50;;;;;;;10.45;5.12;;;;;;;19.29;80.44;100238.34;5043487;57;1143091;-73
2023/09/19 18:01:01;;;;;;;12.18;4.37;;;;;;;19.27;80.83;100248.41;5027860;56;1140849;-73
2023/09/19 18:06:04;;;;;;;7.87;6.30;;;;;;;19.13;81.05;100249.22;5045947;56;1141046;-75
2023/09/19 18:11:16;;;;;;;31.12;18.80;;;;;;;18.90;81.42;100259.97;5089453;56;1138836;-73
2023/09/19 18:16:24;;;;;;;9.13;5.77;;;;;;;18.73;82.07;100258.41;5022971;57;1142958;-73
2023/09/19 18:21:32;;;;;;;7.20;4.75;;;;;;;18.66;82.70;100267.66;5064869;56;1138745;-75
2023/09/19 18:26:38;;;;;;;6.67;4.30;;;;;;;18.58;83.31;100275.72;5124700;55;1138880;-74
2023/09/19 18:31:45;;;;;;;18.42;10.20;;;;;;;18.48;83.87;100272.44;5107835;55;1139012;-76
2023/09/19 18:36:50;;;;;;;15.07;8.13;;;;;;;18.35;84.22;100276.17;5084270;56;1142985;-71
2023/09/19 18:41:56;;;;;;;9.68;6.37;;;;;;;18.16;84.83;100276.11;5051282;56;1140998;-74
2023/09/19 18:47:03;;;;;;;7.77;4.10;;;;;;;18.06;85.33;100277.64;5119655;56;1138679;-73
2023/09/19 18:52:08;;;;;;;8.58;5.03;;;;;;;17.95;85.42;100270.49;5119261;56;1138854;-74
2023/09/19 18:57:14;;;;;;;18.67;11.03;;;;;;;17.95;85.42;100270.49;5034822;57;1138848;-73
2023/09/19 19:02:22;;;;;;;9.23;7.17;;;;;;;17.88;86.49;100275.69;4994591;57;1142986;-75
2023/09/19 19:07:27;;;;;;;7.80;4.72;;;;;;;17.83;86.90;100279.41;4864225;58;1138888;-73
2023/09/19 19:12:36;;;;;;;7.33;4.03;;;;;;;17.82;87.27;100285.75;4902482;58;1138896;-73
2023/09/19 19:17:42;;;;;;;8.93;3.77;;;;;;;17.84;87.43;100291.27;4967491;57;1138565;-73
2023/09/19 19:22:47;;;;;;;6.78;3.60;;;;;;;17.80;87.06;100287.77;4977772;56;1138894;-74
2023/09/19 19:27:54;;;;;;;8.97;4.40;;;;;;;17.76;87.13;100295.79;4939909;57;1138683;-74
2023/09/19 19:33:00;;;;;;;7.93;4.57;;;;;;;17.68;87.76;100283.28;5025593;56;1138692;-74
2023/09/19 19:38:05;;;;;;;9.18;4.53;;;;;;;17.60;88.45;100280.58;4955576;57;1138850;-74
2023/09/19 19:43:11;;;;;;;7.15;4.67;;;;;;;17.67;89.14;100288.30;4935127;56;1138814;-75
2023/09/19 19:48:17;;;;;;;9.10;4.10;;;;;;;17.76;89.20;100291.77;4865457;57;1138819;-75
2023/09/19 19:53:27;;;;;;;6.90;3.90;;;;;;;17.80;88.93;100283.75;4958558;58;1139165;-74
2023/09/19 19:58:35;;;;;;;8.73;4.60;;;;;;;17.67;88.40;100294.98;4957142;57;1138806;-75
2023/09/19 20:03:42;;;;;;;5.35;3.65;;;;;;;17.38;88.29;100295.50;5018616;57;1139168;-74
2023/09/19 20:08:48;;;;;;;5.58;3.65;;;;;;;17.19;88.91;100293.16;5020421;57;1138941;-74
2023/09/19 20:13:54;;;;;;;7.83;3.57;;;;;;;17.01;89.63;100295.14;4997058;57;1138997;-74
2023/09/19 20:19:07;;;;;;;7.14;3.78;;;;;;;16.93;90.06;100300.00;4996434;57;1139149;-74
2023/09/19 20:24:19;;;;;;;5.52;3.36;;;;;;;16.87;90.48;100297.47;5043396;56;1138885;-74
2023/09/19 20:29:22;;;;;;;5.03;3.27;;;;;;;16.86;90.95;100296.30;4986652;57;1138774;-74
2023/09/19 20:34:28;;;;;;;9.93;3.83;;;;;;;16.86;91.27;100298.47;4988527;57;1138770;-74
2023/09/19 20:39:34;;;;;;;10.37;3.70;;;;;;;16.81;91.19;100303.95;5181527;55;1138870;-74
2023/09/19 20:44:40;;;;;;;7.30;3.98;;;;;;;16.72;91.62;100298.28;5128607;55;1141062;-74
2023/09/19 20:49:46;;;;;;;9.80;3.62;;;;;;;16.66;91.82;100299.76;5029190;57;1138837;-75
2023/09/19 20:54:52;;;;;;;11.38;3.50;;;;;;;16.58;92.40;100294.87;5001164;57;1138929;-74
2023/09/19 20:59:58;;;;;;;4.40;3.97;;;;;;;16.51;92.93;100295.52;5079252;55;1140759;-74
2023/09/19 21:05:04;;;;;;;5.83;3.80;;;;;;;16.51;93.31;100298.19;5027250;55;1138821;-74
2023/09/19 21:10:10;;;;;;;9.27;3.97;;;;;;;16.52;93.73;100300.36;5032237;57;1138967;-74
2023/09/19 21:15:17;;;;;;;6.80;3.13;;;;;;;16.45;94.08;100293.52;5025638;57;1139001;-75
2023/09/19 21:20:26;;;;;;;5.87;3.63;;;;;;;16.42;94.31;100300.51;5109173;56;1138696;-74
2023/09/19 21:25:31;;;;;;;6.80;3.37;;;;;;;16.35;94.54;100295.47;5085590;56;1138696;-74
2023/09/19 21:30:37;;;;;;;4.73;3.10;;;;;;;16.35;94.15;100303.97;4988383;57;1138883;-74
2023/09/19 21:35:48;;;;;;;5.07;3.00;;;;;;;16.36;94.05;100309.64;5015689;57;1138935;-74
2023/09/19 21:40:54;;;;;;;8.63;3.40;;;;;;;16.33;94.34;100310.83;4990973;57;1138849;-74
2023/09/19 21:45:59;;;;;;;5.63;3.20;;;;;;;16.29;94.68;100312.64;4995835;56;1138890;-74
2023/09/19 21:51:05;;;;;;;8.95;3.90;;;;;;;16.19;94.80;100314.11;5015407;56;1139083;-74
2023/09/19 21:56:11;;;;;;;6.83;3.40;;;;;;;16.11;95.21;100309.55;5034706;57;1139153;-74
2023/09/19 22:01:24;;;;;;;7.97;3.83;;;;;;;16.04;95.24;100300.50;5015104;57;1138839;-74
2023/09/19 22:06:25;;;;;;;10.77;3.33;;;;;;;15.97;95.54;100296.81;5022125;57;1139036;-73
2023/09/19 22:11:32;;;;;;;5.57;3.67;;;;;;;15.94;95.66;100302.95;5004310;57;1140817;-74
2023/09/19 22:16:38;;;;;;;9.07;3.17;;;;;;;15.91;95.79;100300.60;4996076;56;1138920;-74
2023/09/19 22:21:46;;;;;;;9.23;3.17;;;;;;;15.88;95.84;100306.28;4995611;58;1138673;-74
2023/09/19 22:26:51;;;;;;;8.23;3.70;;;;;;;15.82;96.06;100296.57;5031160;56;1138915;-74
2023/09/19 22:31:58;;;;;;;7.72;3.52;;;;;;;15.81;96.27;100299.39;4984791;57;1138869;-74
2023/09/19 22:37:04;;;;;;;9.53;3.45;;;;;;;15.75;96.09;100299.52;4945239;58;1138858;-74
2023/09/19 22:42:11;;;;;;;23.93;3.63;;;;;;;15.71;96.30;100308.01;4933056;57;1139081;-74
2023/09/19 22:47:18;;;;;;;7.20;3.70;;;;;;;15.68;96.81;100309.16;4930047;57;1141129;-74
2023/09/19 22:52:25;;;;;;;5.60;3.43;;;;;;;15.66;96.69;100310.30;4975004;57;1138886;-74
2023/09/19 22:57:30;;;;;;;11.10;4.10;;;;;;;15.64;96.64;100314.45;5010951;57;1138728;-74
2023/09/19 23:02:41;;;;;;;9.90;5.13;;;;;;;15.70;96.88;100320.50;4991233;57;1140978;-74
2023/09/19 23:07:47;;;;;;;8.30;3.43;;;;;;;15.74;96.88;100323.17;4987913;57;1138820;-74
2023/09/19 23:12:50;;;;;;;9.63;3.60;;;;;;;15.64;96.97;100321.12;4996111;57;1148470;-74
2023/09/19 23:17:56;;;;;;;9.30;3.17;;;;;;;15.56;97.25;100329.56;5013343;56;1138840;-74
2023/09/19 23:23:04;;;;;;;9.13;3.53;;;;;;;15.43;97.17;100316.59;5016033;56;1138853;-74
2023/09/19 23:28:10;;;;;;;6.40;3.57;;;;;;;15.32;97.50;100323.01;5052295;57;1139068;-74